PWSweather.com
Personal Weather Stations
Station Observations
DW6359
Southwest Cambria, Cambria, WI 53923

Southwest CambriaCambria, WI 53923

Lat: 43.541194, Lon: -89.11275

Elevation: 945

Station Type: Davis Vantage Pro2

http://home.centurytel.net/weathercambria/wxcambria.html

High Low Average
Temperature 38.4°F3.6°C 25.1°F-3.8°C 31.9°F-0.1°C
Dew Point 34.2°F1.2°C 19.2°F-7.1°C 24.8°F-4.0°C
Winds 29.0 mph 46.7 kmh Calm Calm 7.0 mph WSW11.3 kmh WSW
Wind Gusts 28.0 mph45.1 kmh -- 3.0 mph4.8 kmh
Humidity 92% 58% 75%
Pressure 30.15 in1021.0 mb 29.50 in999.0 mb -
Precipitation 0.06 in1.5 mm - -
Hour Temp Dew Point Humidity Winds Wind Gusts Pressure Precip Precip Rate Daily Precip Total
12:00 AM 37.2°F2.9°C 34.3°F1.3°C 89% 4.0 mph S6.4 kmh S -- 29.54 in1000.3 mb 0.06 in1.5 mm 0.00 in0.0 mm 0.19 in4.8 mm
12:05 AM 37.3°F2.9°C 34.4°F1.3°C 89% 6.0 mph SE9.7 kmh SE -- 29.53 in1000.0 mb 0.07 in1.8 mm 0.12 in3.0 mm 0.20 in5.1 mm
12:10 AM 37.3°F2.9°C 34.4°F1.3°C 89% 5.0 mph SSE8.0 kmh SSE -- 29.53 in1000.0 mb 0.07 in1.8 mm 0.00 in0.0 mm 0.21 in5.3 mm
12:15 AM 37.3°F2.9°C 34.4°F1.3°C 89% 5.0 mph S8.0 kmh S -- 29.53 in1000.0 mb 0.07 in1.8 mm 0.00 in0.0 mm 0.21 in5.3 mm
12:20 AM 37.3°F2.9°C 34.4°F1.3°C 89% 3.0 mph SSE4.8 kmh SSE -- 29.54 in1000.3 mb 0.07 in1.8 mm 0.00 in0.0 mm 0.22 in5.6 mm
12:25 AM 37.3°F2.9°C 34.4°F1.3°C 89% 1.0 mph S1.6 kmh S -- 29.54 in1000.3 mb 0.07 in1.8 mm 0.00 in0.0 mm 0.22 in5.6 mm
12:30 AM 37.3°F2.9°C 34.4°F1.3°C 89% 5.0 mph S8.0 kmh S 10.0 mph16.1 kmh 29.53 in1000.0 mb 0.07 in1.8 mm 0.00 in0.0 mm 0.23 in5.8 mm
12:35 AM 37.3°F2.9°C 34.4°F1.3°C 89% 4.0 mph SSW6.4 kmh SSW 10.0 mph16.1 kmh 29.53 in1000.0 mb 0.07 in1.8 mm 0.00 in0.0 mm 0.23 in5.8 mm
12:40 AM 37.2°F2.9°C 34.3°F1.3°C 89% Calm Calm -- 29.53 in1000.0 mb 0.07 in1.8 mm 0.00 in0.0 mm 0.24 in6.1 mm
12:45 AM 37.1°F2.8°C 34.2°F1.2°C 89% 2.0 mph SSW3.2 kmh SSW -- 29.53 in1000.0 mb 0.08 in2.0 mm 0.12 in3.0 mm 0.25 in6.4 mm
12:50 AM 37.0°F2.8°C 34.1°F1.2°C 89% 5.0 mph SSE8.0 kmh SSE -- 29.52 in999.7 mb 0.07 in1.8 mm 0.00 in0.0 mm 0.25 in6.4 mm
12:55 AM 37.0°F2.8°C 33.8°F1.0°C 88% 3.0 mph S4.8 kmh S -- 29.52 in999.7 mb 0.07 in1.8 mm 0.00 in0.0 mm 0.26 in6.6 mm
01:00 AM 37.0°F2.8°C 34.1°F1.2°C 89% 2.0 mph S3.2 kmh S -- 29.51 in999.3 mb 0.07 in1.8 mm 0.00 in0.0 mm 0.08 in2.0 mm
01:05 AM 37.0°F2.8°C 34.1°F1.2°C 89% Calm Calm -- 29.50 in999.0 mb 0.07 in1.8 mm 0.00 in0.0 mm 0.01 in0.3 mm
01:10 AM 37.0°F2.8°C 34.1°F1.2°C 89% 2.0 mph S3.2 kmh S -- 29.50 in999.0 mb 0.08 in2.0 mm 0.12 in3.0 mm 0.02 in0.5 mm
01:15 AM 36.9°F2.7°C 34.0°F1.1°C 89% 3.0 mph S4.8 kmh S -- 29.51 in999.3 mb 0.07 in1.8 mm 0.00 in0.0 mm 0.02 in0.5 mm
01:20 AM 36.8°F2.7°C 33.9°F1.1°C 89% 2.0 mph S3.2 kmh S 4.0 mph6.4 kmh 29.51 in999.3 mb 0.07 in1.8 mm 0.00 in0.0 mm 0.03 in0.8 mm
01:25 AM 36.8°F2.7°C 33.9°F1.1°C 89% 3.0 mph S4.8 kmh S 4.0 mph6.4 kmh 29.51 in999.3 mb 0.07 in1.8 mm 0.00 in0.0 mm 0.03 in0.8 mm
01:30 AM 36.9°F2.7°C 34.0°F1.1°C 89% 3.0 mph SW4.8 kmh SW -- 29.51 in999.3 mb 0.07 in1.8 mm 0.00 in0.0 mm 0.04 in1.0 mm
01:35 AM 36.9°F2.7°C 34.0°F1.1°C 89% 1.0 mph SW1.6 kmh SW -- 29.51 in999.3 mb 0.07 in1.8 mm 0.00 in0.0 mm 0.04 in1.0 mm
01:40 AM 36.9°F2.7°C 34.0°F1.1°C 89% 7.0 mph SSW11.3 kmh SSW -- 29.51 in999.3 mb 0.07 in1.8 mm 0.00 in0.0 mm 0.05 in1.3 mm
01:45 AM 37.1°F2.8°C 34.2°F1.2°C 89% 5.0 mph SW8.0 kmh SW -- 29.51 in999.3 mb 0.06 in1.5 mm 0.00 in0.0 mm 0.05 in1.3 mm
01:50 AM 37.0°F2.8°C 34.1°F1.2°C 89% 3.0 mph WSW4.8 kmh WSW -- 29.51 in999.3 mb 0.07 in1.8 mm 0.12 in3.0 mm 0.06 in1.5 mm
01:55 AM 36.8°F2.7°C 33.9°F1.1°C 89% 12.0 mph WSW19.3 kmh WSW -- 29.51 in999.3 mb 0.06 in1.5 mm 0.00 in0.0 mm 0.06 in1.5 mm
02:00 AM 36.6°F2.6°C 33.7°F0.9°C 89% 5.0 mph WSW8.0 kmh WSW -- 29.51 in999.3 mb 0.06 in1.5 mm 0.00 in0.0 mm 0.06 in1.5 mm
02:05 AM 36.3°F2.4°C 33.1°F0.6°C 88% 5.0 mph SW8.0 kmh SW -- 29.53 in1000.0 mb 0.05 in1.3 mm 0.00 in0.0 mm 0.06 in1.5 mm
02:10 AM 36.1°F2.3°C 32.9°F0.5°C 88% 8.0 mph WSW12.9 kmh WSW 17.0 mph27.4 kmh 29.53 in1000.0 mb 0.04 in1.0 mm 0.00 in0.0 mm 0.06 in1.5 mm
02:15 AM 36.0°F2.2°C 33.1°F0.6°C 89% 9.0 mph W14.5 kmh W 17.0 mph27.4 kmh 29.53 in1000.0 mb 0.04 in1.0 mm 0.00 in0.0 mm 0.06 in1.5 mm
02:20 AM 35.8°F2.1°C 32.9°F0.5°C 89% 5.0 mph W8.0 kmh W -- 29.53 in1000.0 mb 0.03 in0.8 mm 0.00 in0.0 mm 0.06 in1.5 mm
02:25 AM 35.6°F2.0°C 32.4°F0.2°C 88% 15.0 mph SW24.1 kmh SW -- 29.54 in1000.3 mb 0.03 in0.8 mm 0.00 in0.0 mm 0.06 in1.5 mm
02:30 AM 35.4°F1.9°C 32.5°F0.3°C 89% 4.0 mph WSW6.4 kmh WSW -- 29.54 in1000.3 mb 0.02 in0.5 mm 0.00 in0.0 mm 0.06 in1.5 mm
02:35 AM 35.0°F1.7°C 32.1°F0.1°C 89% 22.0 mph W35.4 kmh W -- 29.53 in1000.0 mb 0.02 in0.5 mm 0.00 in0.0 mm 0.06 in1.5 mm
02:40 AM 34.5°F1.4°C 31.6°F-0.2°C 89% 11.0 mph WSW17.7 kmh WSW -- 29.54 in1000.3 mb 0.01 in0.3 mm 0.00 in0.0 mm 0.06 in1.5 mm
02:45 AM 34.5°F1.4°C 32.4°F0.2°C 92% 8.0 mph W12.9 kmh W -- 29.54 in1000.3 mb 0.01 in0.3 mm 0.00 in0.0 mm 0.06 in1.5 mm
02:50 AM 34.4°F1.3°C 32.1°F0.1°C 91% 4.0 mph WSW6.4 kmh WSW -- 29.54 in1000.3 mb 0.00 in0.0 mm 0.00 in0.0 mm 0.06 in1.5 mm
02:55 AM 34.3°F1.3°C 32.2°F0.1°C 92% 8.0 mph WSW12.9 kmh WSW -- 29.54 in1000.3 mb 0.00 in0.0 mm 0.00 in0.0 mm 0.06 in1.5 mm
03:00 AM 34.2°F1.2°C 32.1°F0.1°C 92% 13.0 mph SW20.9 kmh SW 17.0 mph27.4 kmh 29.55 in1000.7 mb 0.00 in0.0 mm 0.00 in0.0 mm 0.06 in1.5 mm
03:05 AM 34.1°F1.2°C 31.5°F-0.3°C 90% 9.0 mph W14.5 kmh W 17.0 mph27.4 kmh 29.55 in1000.7 mb 0.00 in0.0 mm 0.00 in0.0 mm 0.06 in1.5 mm
03:10 AM 33.9°F1.1°C 30.7°F-0.7°C 88% 11.0 mph WSW17.7 kmh WSW -- 29.55 in1000.7 mb 0.00 in0.0 mm 0.00 in0.0 mm 0.06 in1.5 mm
03:15 AM 33.6°F0.9°C 29.9°F-1.2°C 86% 5.0 mph W8.0 kmh W -- 29.55 in1000.7 mb 0.00 in0.0 mm 0.00 in0.0 mm 0.06 in1.5 mm
03:20 AM 33.3°F0.7°C 29.6°F-1.3°C 86% 15.0 mph WNW24.1 kmh WNW -- 29.56 in1001.0 mb 0.00 in0.0 mm 0.00 in0.0 mm 0.06 in1.5 mm
03:25 AM 33.1°F0.6°C 29.1°F-1.6°C 85% 9.0 mph SW14.5 kmh SW -- 29.56 in1001.0 mb 0.00 in0.0 mm 0.00 in0.0 mm 0.06 in1.5 mm
03:30 AM 32.8°F0.4°C 28.8°F-1.8°C 85% 11.0 mph W17.7 kmh W -- 29.56 in1001.0 mb 0.00 in0.0 mm 0.00 in0.0 mm 0.06 in1.5 mm
03:35 AM 32.5°F0.3°C 27.9°F-2.3°C 83% 9.0 mph WSW14.5 kmh WSW -- 29.56 in1001.0 mb 0.00 in0.0 mm 0.00 in0.0 mm 0.06 in1.5 mm
03:40 AM 32.4°F0.2°C 28.4°F-2.0°C 85% 14.0 mph W22.5 kmh W -- 29.56 in1001.0 mb 0.00 in0.0 mm 0.00 in0.0 mm 0.06 in1.5 mm
03:45 AM 32.3°F0.2°C 28.3°F-2.1°C 85% 7.0 mph WSW11.3 kmh WSW -- 29.57 in1001.4 mb 0.00 in0.0 mm 0.00 in0.0 mm 0.06 in1.5 mm
03:50 AM 32.1°F0.1°C 28.1°F-2.2°C 85% 13.0 mph WSW20.9 kmh WSW 22.0 mph35.4 kmh 29.57 in1001.4 mb 0.00 in0.0 mm 0.00 in0.0 mm 0.06 in1.5 mm
03:55 AM 31.8°F-0.1°C 28.1°F-2.2°C 86% 3.0 mph SW4.8 kmh SW 22.0 mph35.4 kmh 29.57 in1001.4 mb 0.00 in0.0 mm 0.00 in0.0 mm 0.06 in1.5 mm
04:00 AM 31.6°F-0.2°C 27.9°F-2.3°C 86% 3.0 mph WSW4.8 kmh WSW -- 29.57 in1001.4 mb 0.00 in0.0 mm 0.00 in0.0 mm 0.06 in1.5 mm
04:05 AM 31.4°F-0.3°C 27.7°F-2.4°C 86% 4.0 mph WNW6.4 kmh WNW -- 29.57 in1001.4 mb 0.00 in0.0 mm 0.00 in0.0 mm 0.06 in1.5 mm
04:10 AM 31.0°F-0.6°C 27.0°F-2.8°C 85% 12.0 mph SW19.3 kmh SW -- 29.58 in1001.7 mb 0.00 in0.0 mm 0.00 in0.0 mm 0.06 in1.5 mm
04:15 AM 30.9°F-0.6°C 26.6°F-3.0°C 84% 15.0 mph WSW24.1 kmh WSW -- 29.58 in1001.7 mb 0.00 in0.0 mm 0.00 in0.0 mm 0.06 in1.5 mm
04:20 AM 30.7°F-0.7°C 26.4°F-3.1°C 84% 9.0 mph SW14.5 kmh SW -- 29.58 in1001.7 mb 0.00 in0.0 mm 0.00 in0.0 mm 0.06 in1.5 mm
04:25 AM 30.6°F-0.8°C 26.4°F-3.1°C 84% 7.0 mph WSW11.3 kmh WSW -- 29.59 in1002.0 mb 0.00 in0.0 mm 0.00 in0.0 mm 0.06 in1.5 mm
04:30 AM 30.4°F-0.9°C 26.2°F-3.2°C 84% 15.0 mph W24.1 kmh W -- 29.59 in1002.0 mb 0.00 in0.0 mm 0.00 in0.0 mm 0.06 in1.5 mm
04:35 AM 30.2°F-1.0°C 26.0°F-3.3°C 84% 12.0 mph WSW19.3 kmh WSW -- 29.59 in1002.0 mb 0.00 in0.0 mm 0.00 in0.0 mm 0.06 in1.5 mm
04:40 AM 29.9°F-1.2°C 25.9°F-3.4°C 85% 8.0 mph SE12.9 kmh SE 28.0 mph45.1 kmh 29.60 in1002.4 mb 0.00 in0.0 mm 0.00 in0.0 mm 0.06 in1.5 mm
04:45 AM 29.8°F-1.2°C 25.9°F-3.4°C 85% 12.0 mph WSW19.3 kmh WSW 28.0 mph45.1 kmh 29.60 in1002.4 mb 0.00 in0.0 mm 0.00 in0.0 mm 0.06 in1.5 mm
04:50 AM 29.6°F-1.3°C 25.9°F-3.4°C 86% 20.0 mph SW32.2 kmh SW -- 29.61 in1002.7 mb 0.00 in0.0 mm 0.00 in0.0 mm 0.06 in1.5 mm
04:55 AM 29.4°F-1.4°C 25.5°F-3.6°C 85% 6.0 mph W9.7 kmh W -- 29.62 in1003.0 mb 0.00 in0.0 mm 0.00 in0.0 mm 0.06 in1.5 mm
05:00 AM 28.9°F-1.7°C 23.5°F-4.7°C 80% 29.0 mph W46.7 kmh W -- 29.62 in1003.0 mb 0.00 in0.0 mm 0.00 in0.0 mm 0.06 in1.5 mm
05:05 AM 28.0°F-2.2°C 22.9°F-5.1°C 81% 16.0 mph SW25.7 kmh SW -- 29.63 in1003.4 mb 0.00 in0.0 mm 0.00 in0.0 mm 0.06 in1.5 mm
05:10 AM 27.7°F-2.4°C 22.9°F-5.1°C 82% 17.0 mph WSW27.4 kmh WSW -- 29.64 in1003.7 mb 0.00 in0.0 mm 0.00 in0.0 mm 0.06 in1.5 mm
05:15 AM 27.2°F-2.7°C 22.4°F-5.3°C 82% 8.0 mph W12.9 kmh W -- 29.65 in1004.1 mb 0.00 in0.0 mm 0.00 in0.0 mm 0.06 in1.5 mm
05:20 AM 26.6°F-3.0°C 21.6°F-5.8°C 81% 11.0 mph WSW17.7 kmh WSW -- 29.65 in1004.1 mb 0.00 in0.0 mm 0.00 in0.0 mm 0.06 in1.5 mm
05:25 AM 26.3°F-3.2°C 21.6°F-5.8°C 82% 18.0 mph W29.0 kmh W -- 29.66 in1004.4 mb 0.00 in0.0 mm 0.00 in0.0 mm 0.06 in1.5 mm
05:30 AM 26.2°F-3.2°C 21.8°F-5.7°C 83% 9.0 mph WSW14.5 kmh WSW 24.0 mph38.6 kmh 29.67 in1004.7 mb 0.00 in0.0 mm 0.00 in0.0 mm 0.06 in1.5 mm
05:35 AM 26.2°F-3.2°C 21.8°F-5.7°C 83% 6.0 mph W9.7 kmh W 24.0 mph38.6 kmh 29.66 in1004.4 mb 0.00 in0.0 mm 0.00 in0.0 mm 0.06 in1.5 mm
05:40 AM 26.2°F-3.2°C 21.8°F-5.7°C 83% 7.0 mph WSW11.3 kmh WSW -- 29.67 in1004.7 mb 0.00 in0.0 mm 0.00 in0.0 mm 0.06 in1.5 mm
05:45 AM 26.2°F-3.2°C 21.8°F-5.7°C 83% 15.0 mph W24.1 kmh W -- 29.67 in1004.7 mb 0.00 in0.0 mm 0.00 in0.0 mm 0.06 in1.5 mm
05:50 AM 26.1°F-3.3°C 21.7°F-5.7°C 83% 6.0 mph W9.7 kmh W -- 29.68 in1005.1 mb 0.00 in0.0 mm 0.00 in0.0 mm 0.06 in1.5 mm
05:55 AM 26.1°F-3.3°C 21.7°F-5.7°C 83% 11.0 mph SW17.7 kmh SW -- 29.68 in1005.1 mb 0.00 in0.0 mm 0.00 in0.0 mm 0.06 in1.5 mm
06:00 AM 26.1°F-3.3°C 21.7°F-5.7°C 83% 17.0 mph SW27.4 kmh SW -- 29.68 in1005.1 mb 0.00 in0.0 mm 0.00 in0.0 mm 0.06 in1.5 mm
06:05 AM 26.0°F-3.3°C 21.6°F-5.8°C 83% 11.0 mph W17.7 kmh W -- 29.68 in1005.1 mb 0.00 in0.0 mm 0.00 in0.0 mm 0.06 in1.5 mm
06:10 AM 26.0°F-3.3°C 21.8°F-5.7°C 84% 3.0 mph WSW4.8 kmh WSW -- 29.69 in1005.4 mb 0.00 in0.0 mm 0.00 in0.0 mm 0.06 in1.5 mm
06:15 AM 26.1°F-3.3°C 21.7°F-5.7°C 83% 10.0 mph WSW16.1 kmh WSW -- 29.69 in1005.4 mb 0.00 in0.0 mm 0.00 in0.0 mm 0.06 in1.5 mm
06:20 AM 26.2°F-3.2°C 21.8°F-5.7°C 83% 9.0 mph W14.5 kmh W 24.0 mph38.6 kmh 29.69 in1005.4 mb 0.00 in0.0 mm 0.00 in0.0 mm 0.06 in1.5 mm
06:25 AM 26.2°F-3.2°C 21.8°F-5.7°C 83% 5.0 mph WSW8.0 kmh WSW 24.0 mph38.6 kmh 29.69 in1005.4 mb 0.00 in0.0 mm 0.00 in0.0 mm 0.06 in1.5 mm
06:30 AM 26.9°F-2.8°C 21.6°F-5.8°C 80% 11.0 mph W17.7 kmh W -- 29.69 in1005.4 mb 0.00 in0.0 mm 0.00 in0.0 mm 0.06 in1.5 mm
06:35 AM 27.0°F-2.8°C 21.4°F-5.9°C 79% 14.0 mph SW22.5 kmh SW -- 29.70 in1005.8 mb 0.00 in0.0 mm 0.00 in0.0 mm 0.06 in1.5 mm
06:40 AM 27.0°F-2.8°C 21.4°F-5.9°C 79% 12.0 mph WSW19.3 kmh WSW -- 29.70 in1005.8 mb 0.00 in0.0 mm 0.00 in0.0 mm 0.06 in1.5 mm
06:45 AM 27.0°F-2.8°C 21.4°F-5.9°C 79% 6.0 mph WSW9.7 kmh WSW -- 29.70 in1005.8 mb 0.00 in0.0 mm 0.00 in0.0 mm 0.06 in1.5 mm
06:50 AM 27.1°F-2.7°C 21.5°F-5.8°C 79% 10.0 mph WSW16.1 kmh WSW -- 29.70 in1005.8 mb 0.00 in0.0 mm 0.00 in0.0 mm 0.06 in1.5 mm
06:55 AM 27.1°F-2.7°C 21.2°F-6.0°C 78% 21.0 mph WSW33.8 kmh WSW -- 29.70 in1005.8 mb 0.00 in0.0 mm 0.00 in0.0 mm 0.06 in1.5 mm
07:00 AM 27.0°F-2.8°C 21.1°F-6.1°C 78% 9.0 mph SW14.5 kmh SW -- 29.70 in1005.8 mb 0.00 in0.0 mm 0.00 in0.0 mm 0.06 in1.5 mm
07:05 AM 27.0°F-2.8°C 21.1°F-6.1°C 78% 8.0 mph SW12.9 kmh SW -- 29.71 in1006.1 mb 0.00 in0.0 mm 0.00 in0.0 mm 0.06 in1.5 mm
07:10 AM 27.1°F-2.7°C 21.2°F-6.0°C 78% 6.0 mph SW9.7 kmh SW 22.0 mph35.4 kmh 29.71 in1006.1 mb 0.00 in0.0 mm 0.00 in0.0 mm 0.06 in1.5 mm
07:15 AM 27.1°F-2.7°C 21.2°F-6.0°C 78% 14.0 mph W22.5 kmh W 22.0 mph35.4 kmh 29.71 in1006.1 mb 0.00 in0.0 mm 0.00 in0.0 mm 0.06 in1.5 mm
07:20 AM 27.1°F-2.7°C 21.5°F-5.8°C 79% 6.0 mph SW9.7 kmh SW -- 29.71 in1006.1 mb 0.00 in0.0 mm 0.00 in0.0 mm 0.06 in1.5 mm
07:25 AM 27.0°F-2.8°C 21.4°F-5.9°C 79% 8.0 mph SW12.9 kmh SW -- 29.71 in1006.1 mb 0.00 in0.0 mm 0.00 in0.0 mm 0.06 in1.5 mm
07:30 AM 27.0°F-2.8°C 21.7°F-5.7°C 80% 7.0 mph WSW11.3 kmh WSW -- 29.72 in1006.4 mb 0.00 in0.0 mm 0.00 in0.0 mm 0.06 in1.5 mm
07:35 AM 27.0°F-2.8°C 21.4°F-5.9°C 79% 8.0 mph WSW12.9 kmh WSW -- 29.72 in1006.4 mb 0.00 in0.0 mm 0.00 in0.0 mm 0.06 in1.5 mm
07:40 AM 27.0°F-2.8°C 21.4°F-5.9°C 79% 7.0 mph W11.3 kmh W -- 29.72 in1006.4 mb 0.00 in0.0 mm 0.00 in0.0 mm 0.06 in1.5 mm
07:45 AM 26.9°F-2.8°C 21.3°F-5.9°C 79% 6.0 mph SW9.7 kmh SW -- 29.73 in1006.8 mb 0.00 in0.0 mm 0.00 in0.0 mm 0.06 in1.5 mm
07:50 AM 26.8°F-2.9°C 21.2°F-6.0°C 79% 8.0 mph WSW12.9 kmh WSW -- 29.73 in1006.8 mb 0.00 in0.0 mm 0.00 in0.0 mm 0.06 in1.5 mm
07:55 AM 26.5°F-3.1°C 20.6°F-6.3°C 78% 9.0 mph WSW14.5 kmh WSW -- 29.74 in1007.1 mb 0.00 in0.0 mm 0.00 in0.0 mm 0.06 in1.5 mm
08:00 AM 26.4°F-3.1°C 20.8°F-6.2°C 79% 14.0 mph WSW22.5 kmh WSW 20.0 mph32.2 kmh 29.74 in1007.1 mb 0.00 in0.0 mm 0.00 in0.0 mm 0.06 in1.5 mm
08:05 AM 26.3°F-3.2°C 20.4°F-6.4°C 78% 10.0 mph WSW16.1 kmh WSW 20.0 mph32.2 kmh 29.75 in1007.5 mb 0.00 in0.0 mm 0.00 in0.0 mm 0.06 in1.5 mm
08:10 AM 26.2°F-3.2°C 20.6°F-6.3°C 79% 13.0 mph SW20.9 kmh SW -- 29.75 in1007.5 mb 0.00 in0.0 mm 0.00 in0.0 mm 0.06 in1.5 mm
08:15 AM 25.9°F-3.4°C 20.0°F-6.7°C 78% 11.0 mph W17.7 kmh W -- 29.76 in1007.8 mb 0.00 in0.0 mm 0.00 in0.0 mm 0.06 in1.5 mm
08:20 AM 25.7°F-3.5°C 19.8°F-6.8°C 78% 8.0 mph SW12.9 kmh SW -- 29.77 in1008.1 mb 0.00 in0.0 mm 0.00 in0.0 mm 0.06 in1.5 mm
08:25 AM 25.6°F-3.6°C 20.0°F-6.7°C 79% 15.0 mph WSW24.1 kmh WSW -- 29.77 in1008.1 mb 0.00 in0.0 mm 0.00 in0.0 mm 0.06 in1.5 mm
08:30 AM 25.5°F-3.6°C 19.9°F-6.7°C 79% 12.0 mph SW19.3 kmh SW -- 29.78 in1008.5 mb 0.00 in0.0 mm 0.00 in0.0 mm 0.06 in1.5 mm
08:35 AM 25.5°F-3.6°C 19.9°F-6.7°C 79% 9.0 mph WSW14.5 kmh WSW -- 29.79 in1008.8 mb 0.00 in0.0 mm 0.00 in0.0 mm 0.06 in1.5 mm
08:40 AM 25.3°F-3.7°C 19.4°F-7.0°C 78% 8.0 mph SW12.9 kmh SW -- 29.78 in1008.5 mb 0.00 in0.0 mm 0.00 in0.0 mm 0.06 in1.5 mm
08:45 AM 25.1°F-3.8°C 19.2°F-7.1°C 78% 8.0 mph WSW12.9 kmh WSW -- 29.78 in1008.5 mb 0.00 in0.0 mm 0.00 in0.0 mm 0.06 in1.5 mm
08:50 AM 25.1°F-3.8°C 19.2°F-7.1°C 78% 8.0 mph SW12.9 kmh SW 19.0 mph30.6 kmh 29.79 in1008.8 mb 0.00 in0.0 mm 0.00 in0.0 mm 0.06 in1.5 mm
08:55 AM 25.1°F-3.8°C 19.2°F-7.1°C 78% 11.0 mph WSW17.7 kmh WSW 19.0 mph30.6 kmh 29.79 in1008.8 mb 0.00 in0.0 mm 0.00 in0.0 mm 0.06 in1.5 mm
09:00 AM 25.2°F-3.8°C 19.3°F-7.1°C 78% 6.0 mph WSW9.7 kmh WSW -- 29.79 in1008.8 mb 0.00 in0.0 mm 0.00 in0.0 mm 0.06 in1.5 mm
09:05 AM 25.3°F-3.7°C 19.4°F-7.0°C 78% 4.0 mph WSW6.4 kmh WSW -- 29.79 in1008.8 mb 0.00 in0.0 mm 0.00 in0.0 mm 0.06 in1.5 mm
09:10 AM 25.4°F-3.7°C 19.8°F-6.8°C 79% 1.0 mph WSW1.6 kmh WSW -- 29.79 in1008.8 mb 0.00 in0.0 mm 0.00 in0.0 mm 0.06 in1.5 mm
09:15 AM 25.7°F-3.5°C 20.1°F-6.6°C 79% 6.0 mph SW9.7 kmh SW -- 29.80 in1009.1 mb 0.00 in0.0 mm 0.00 in0.0 mm 0.06 in1.5 mm
09:20 AM 26.0°F-3.3°C 20.4°F-6.4°C 79% 4.0 mph SW6.4 kmh SW -- 29.80 in1009.1 mb 0.00 in0.0 mm 0.00 in0.0 mm 0.06 in1.5 mm
09:25 AM 26.2°F-3.2°C 20.3°F-6.5°C 78% 7.0 mph WSW11.3 kmh WSW -- 29.80 in1009.1 mb 0.00 in0.0 mm 0.00 in0.0 mm 0.06 in1.5 mm
09:30 AM 26.2°F-3.2°C 20.3°F-6.5°C 78% 14.0 mph WNW22.5 kmh WNW -- 29.80 in1009.1 mb 0.00 in0.0 mm 0.00 in0.0 mm 0.06 in1.5 mm
09:35 AM 26.3°F-3.2°C 20.4°F-6.4°C 78% 6.0 mph WSW9.7 kmh WSW -- 29.80 in1009.1 mb 0.00 in0.0 mm 0.00 in0.0 mm 0.06 in1.5 mm
09:40 AM 26.3°F-3.2°C 20.1°F-6.6°C 77% 6.0 mph WSW9.7 kmh WSW 20.0 mph32.2 kmh 29.81 in1009.5 mb 0.00 in0.0 mm 0.00 in0.0 mm 0.06 in1.5 mm
09:45 AM 26.2°F-3.2°C 20.3°F-6.5°C 78% 10.0 mph SW16.1 kmh SW 20.0 mph32.2 kmh 29.81 in1009.5 mb 0.00 in0.0 mm 0.00 in0.0 mm 0.06 in1.5 mm
09:50 AM 26.0°F-3.3°C 20.1°F-6.6°C 78% 7.0 mph WSW11.3 kmh WSW -- 29.82 in1009.8 mb 0.00 in0.0 mm 0.00 in0.0 mm 0.06 in1.5 mm
09:55 AM 26.1°F-3.3°C 20.2°F-6.6°C 78% 8.0 mph WSW12.9 kmh WSW -- 29.82 in1009.8 mb 0.00 in0.0 mm 0.00 in0.0 mm 0.06 in1.5 mm
10:00 AM 26.3°F-3.2°C 20.4°F-6.4°C 78% 4.0 mph WSW6.4 kmh WSW -- 29.82 in1009.8 mb 0.00 in0.0 mm 0.00 in0.0 mm 0.06 in1.5 mm
10:05 AM 26.4°F-3.1°C 20.5°F-6.4°C 78% 17.0 mph SW27.4 kmh SW -- 29.83 in1010.2 mb 0.00 in0.0 mm 0.00 in0.0 mm 0.06 in1.5 mm
10:10 AM 26.5°F-3.1°C 20.6°F-6.3°C 78% 6.0 mph SW9.7 kmh SW -- 29.82 in1009.8 mb 0.00 in0.0 mm 0.00 in0.0 mm 0.06 in1.5 mm
10:15 AM 26.4°F-3.1°C 20.2°F-6.6°C 77% 6.0 mph W9.7 kmh W -- 29.83 in1010.2 mb 0.00 in0.0 mm 0.00 in0.0 mm 0.06 in1.5 mm
10:20 AM 26.7°F-2.9°C 20.8°F-6.2°C 78% 6.0 mph WSW9.7 kmh WSW -- 29.83 in1010.2 mb 0.00 in0.0 mm 0.00 in0.0 mm 0.06 in1.5 mm
10:25 AM 26.8°F-2.9°C 20.6°F-6.3°C 77% 16.0 mph WSW25.7 kmh WSW -- 29.84 in1010.5 mb 0.00 in0.0 mm 0.00 in0.0 mm 0.06 in1.5 mm
10:30 AM 26.9°F-2.8°C 20.7°F-6.3°C 77% 8.0 mph SW12.9 kmh SW 19.0 mph30.6 kmh 29.84 in1010.5 mb 0.00 in0.0 mm 0.00 in0.0 mm 0.06 in1.5 mm
10:35 AM 26.8°F-2.9°C 20.3°F-6.5°C 76% 5.0 mph SW8.0 kmh SW 19.0 mph30.6 kmh 29.84 in1010.5 mb 0.00 in0.0 mm 0.00 in0.0 mm 0.06 in1.5 mm
10:40 AM 26.7°F-2.9°C 20.2°F-6.6°C 76% 6.0 mph SW9.7 kmh SW -- 29.84 in1010.5 mb 0.00 in0.0 mm 0.00 in0.0 mm 0.06 in1.5 mm
10:45 AM 26.9°F-2.8°C 20.7°F-6.3°C 77% 8.0 mph WSW12.9 kmh WSW -- 29.84 in1010.5 mb 0.00 in0.0 mm 0.00 in0.0 mm 0.06 in1.5 mm
10:50 AM 27.1°F-2.7°C 20.9°F-6.2°C 77% 6.0 mph SW9.7 kmh SW -- 29.84 in1010.5 mb 0.00 in0.0 mm 0.00 in0.0 mm 0.06 in1.5 mm
10:55 AM 27.4°F-2.6°C 21.2°F-6.0°C 77% 4.0 mph SW6.4 kmh SW -- 29.84 in1010.5 mb 0.00 in0.0 mm 0.00 in0.0 mm 0.06 in1.5 mm
11:00 AM 27.5°F-2.5°C 20.9°F-6.2°C 76% 10.0 mph SW16.1 kmh SW -- 29.85 in1010.8 mb 0.00 in0.0 mm 0.00 in0.0 mm 0.06 in1.5 mm
11:05 AM 27.4°F-2.6°C 20.8°F-6.2°C 76% 7.0 mph SW11.3 kmh SW -- 29.84 in1010.5 mb 0.00 in0.0 mm 0.00 in0.0 mm 0.06 in1.5 mm
11:10 AM 27.5°F-2.5°C 20.9°F-6.2°C 76% 7.0 mph SW11.3 kmh SW -- 29.85 in1010.8 mb 0.00 in0.0 mm 0.00 in0.0 mm 0.06 in1.5 mm
11:15 AM 27.9°F-2.3°C 21.3°F-5.9°C 76% 6.0 mph WSW9.7 kmh WSW -- 29.85 in1010.8 mb 0.00 in0.0 mm 0.00 in0.0 mm 0.06 in1.5 mm
11:20 AM 27.9°F-2.3°C 21.0°F-6.1°C 75% 6.0 mph SW9.7 kmh SW 15.0 mph24.1 kmh 29.86 in1011.2 mb 0.00 in0.0 mm 0.00 in0.0 mm 0.06 in1.5 mm
11:25 AM 28.1°F-2.2°C 21.2°F-6.0°C 75% 9.0 mph SW14.5 kmh SW 15.0 mph24.1 kmh 29.86 in1011.2 mb 0.00 in0.0 mm 0.00 in0.0 mm 0.06 in1.5 mm
11:30 AM 28.4°F-2.0°C 21.2°F-6.0°C 74% 7.0 mph SSW11.3 kmh SSW -- 29.86 in1011.2 mb 0.00 in0.0 mm 0.00 in0.0 mm 0.06 in1.5 mm
11:35 AM 28.7°F-1.8°C 21.5°F-5.8°C 74% 5.0 mph SW8.0 kmh SW -- 29.87 in1011.5 mb 0.00 in0.0 mm 0.00 in0.0 mm 0.06 in1.5 mm
11:40 AM 29.1°F-1.6°C 21.9°F-5.6°C 74% 10.0 mph SW16.1 kmh SW -- 29.87 in1011.5 mb 0.00 in0.0 mm 0.00 in0.0 mm 0.06 in1.5 mm
11:45 AM 29.0°F-1.7°C 21.4°F-5.9°C 73% 4.0 mph SW6.4 kmh SW -- 29.87 in1011.5 mb 0.00 in0.0 mm 0.00 in0.0 mm 0.06 in1.5 mm
11:50 AM 29.2°F-1.6°C 21.3°F-5.9°C 72% 8.0 mph WSW12.9 kmh WSW -- 29.87 in1011.5 mb 0.00 in0.0 mm 0.00 in0.0 mm 0.06 in1.5 mm
11:55 AM 29.6°F-1.3°C 21.7°F-5.7°C 72% 8.0 mph SW12.9 kmh SW -- 29.87 in1011.5 mb 0.00 in0.0 mm 0.00 in0.0 mm 0.06 in1.5 mm
12:00 PM 29.7°F-1.3°C 21.5°F-5.8°C 71% 8.0 mph SW12.9 kmh SW -- 29.87 in1011.5 mb 0.00 in0.0 mm 0.00 in0.0 mm 0.06 in1.5 mm
12:05 PM 30.3°F-0.9°C 22.7°F-5.2°C 73% 5.0 mph SW8.0 kmh SW -- 29.87 in1011.5 mb 0.00 in0.0 mm 0.00 in0.0 mm 0.06 in1.5 mm
12:10 PM 30.8°F-0.7°C 22.5°F-5.3°C 71% 4.0 mph WSW6.4 kmh WSW 14.0 mph22.5 kmh 29.87 in1011.5 mb 0.00 in0.0 mm 0.00 in0.0 mm 0.06 in1.5 mm
12:15 PM 30.7°F-0.7°C 21.8°F-5.7°C 69% 6.0 mph SW9.7 kmh SW 14.0 mph22.5 kmh 29.86 in1011.2 mb 0.00 in0.0 mm 0.00 in0.0 mm 0.06 in1.5 mm
12:20 PM 31.1°F-0.5°C 22.8°F-5.1°C 71% 5.0 mph SW8.0 kmh SW -- 29.86 in1011.2 mb 0.00 in0.0 mm 0.00 in0.0 mm 0.06 in1.5 mm
12:25 PM 31.1°F-0.5°C 22.5°F-5.3°C 70% 4.0 mph WSW6.4 kmh WSW -- 29.86 in1011.2 mb 0.00 in0.0 mm 0.00 in0.0 mm 0.06 in1.5 mm
12:30 PM 31.3°F-0.4°C 22.3°F-5.4°C 69% 6.0 mph SW9.7 kmh SW -- 29.85 in1010.8 mb 0.00 in0.0 mm 0.00 in0.0 mm 0.06 in1.5 mm
12:35 PM 31.4°F-0.3°C 22.1°F-5.5°C 68% 4.0 mph SW6.4 kmh SW -- 29.85 in1010.8 mb 0.00 in0.0 mm 0.00 in0.0 mm 0.06 in1.5 mm
12:40 PM 31.7°F-0.2°C 23.1°F-4.9°C 70% 9.0 mph W14.5 kmh W -- 29.85 in1010.8 mb 0.00 in0.0 mm 0.00 in0.0 mm 0.06 in1.5 mm
12:45 PM 31.8°F-0.1°C 22.1°F-5.5°C 67% 8.0 mph WSW12.9 kmh WSW -- 29.85 in1010.8 mb 0.00 in0.0 mm 0.00 in0.0 mm 0.06 in1.5 mm
12:50 PM 31.8°F-0.1°C 22.1°F-5.5°C 67% 12.0 mph WSW19.3 kmh WSW -- 29.85 in1010.8 mb 0.00 in0.0 mm 0.00 in0.0 mm 0.06 in1.5 mm
12:55 PM 32.1°F0.1°C 22.7°F-5.2°C 68% 7.0 mph SW11.3 kmh SW -- 29.86 in1011.2 mb 0.00 in0.0 mm 0.00 in0.0 mm 0.06 in1.5 mm
01:00 PM 32.5°F0.3°C 23.1°F-4.9°C 68% 4.0 mph SW6.4 kmh SW 13.0 mph20.9 kmh 29.86 in1011.2 mb 0.00 in0.0 mm 0.00 in0.0 mm 0.06 in1.5 mm
01:05 PM 33.1°F0.6°C 23.7°F-4.6°C 68% 2.0 mph SW3.2 kmh SW 13.0 mph20.9 kmh 29.86 in1011.2 mb 0.00 in0.0 mm 0.00 in0.0 mm 0.06 in1.5 mm
01:10 PM 33.2°F0.7°C 23.1°F-4.9°C 66% 7.0 mph SW11.3 kmh SW -- 29.87 in1011.5 mb 0.00 in0.0 mm 0.00 in0.0 mm 0.06 in1.5 mm
01:15 PM 33.2°F0.7°C 23.1°F-4.9°C 66% 6.0 mph SW9.7 kmh SW -- 29.87 in1011.5 mb 0.00 in0.0 mm 0.00 in0.0 mm 0.06 in1.5 mm
01:20 PM 33.5°F0.8°C 23.4°F-4.8°C 66% 7.0 mph SW11.3 kmh SW -- 29.86 in1011.2 mb 0.00 in0.0 mm 0.00 in0.0 mm 0.06 in1.5 mm
01:25 PM 33.6°F0.9°C 22.7°F-5.2°C 64% 11.0 mph WSW17.7 kmh WSW -- 29.87 in1011.5 mb 0.00 in0.0 mm 0.00 in0.0 mm 0.06 in1.5 mm
01:30 PM 33.7°F0.9°C 22.8°F-5.1°C 64% 6.0 mph SW9.7 kmh SW -- 29.87 in1011.5 mb 0.00 in0.0 mm 0.00 in0.0 mm 0.06 in1.5 mm
01:35 PM 33.9°F1.1°C 23.4°F-4.8°C 65% 8.0 mph WSW12.9 kmh WSW -- 29.87 in1011.5 mb 0.00 in0.0 mm 0.00 in0.0 mm 0.06 in1.5 mm
01:40 PM 34.0°F1.1°C 23.5°F-4.7°C 65% 5.0 mph SW8.0 kmh SW -- 29.87 in1011.5 mb 0.00 in0.0 mm 0.00 in0.0 mm 0.06 in1.5 mm
01:45 PM 34.1°F1.2°C 23.6°F-4.7°C 65% 8.0 mph SW12.9 kmh SW -- 29.87 in1011.5 mb 0.00 in0.0 mm 0.00 in0.0 mm 0.06 in1.5 mm
01:50 PM 34.5°F1.4°C 23.6°F-4.7°C 64% 7.0 mph SW11.3 kmh SW 19.0 mph30.6 kmh 29.87 in1011.5 mb 0.00 in0.0 mm 0.00 in0.0 mm 0.06 in1.5 mm
01:55 PM 34.3°F1.3°C 22.7°F-5.2°C 62% 5.0 mph SSW8.0 kmh SSW 19.0 mph30.6 kmh 29.87 in1011.5 mb 0.00 in0.0 mm 0.00 in0.0 mm 0.06 in1.5 mm
02:00 PM 34.4°F1.3°C 23.1°F-4.9°C 63% 9.0 mph SW14.5 kmh SW -- 29.88 in1011.9 mb 0.00 in0.0 mm 0.00 in0.0 mm 0.06 in1.5 mm
02:05 PM 34.5°F1.4°C 23.2°F-4.9°C 63% 11.0 mph SW17.7 kmh SW -- 29.88 in1011.9 mb 0.00 in0.0 mm 0.00 in0.0 mm 0.06 in1.5 mm
02:10 PM 34.9°F1.6°C 24.0°F-4.4°C 64% 5.0 mph SW8.0 kmh SW -- 29.88 in1011.9 mb 0.00 in0.0 mm 0.00 in0.0 mm 0.06 in1.5 mm
02:15 PM 35.0°F1.7°C 23.3°F-4.8°C 62% 7.0 mph SW11.3 kmh SW -- 29.88 in1011.9 mb 0.00 in0.0 mm 0.00 in0.0 mm 0.06 in1.5 mm
02:20 PM 35.1°F1.7°C 23.8°F-4.6°C 63% 6.0 mph SW9.7 kmh SW -- 29.88 in1011.9 mb 0.00 in0.0 mm 0.00 in0.0 mm 0.06 in1.5 mm
02:25 PM 35.3°F1.8°C 24.0°F-4.4°C 63% 5.0 mph SW8.0 kmh SW -- 29.89 in1012.2 mb 0.00 in0.0 mm 0.00 in0.0 mm 0.06 in1.5 mm
02:30 PM 35.4°F1.9°C 23.7°F-4.6°C 62% 9.0 mph W14.5 kmh W -- 29.88 in1011.9 mb 0.00 in0.0 mm 0.00 in0.0 mm 0.06 in1.5 mm
02:35 PM 35.4°F1.9°C 23.3°F-4.8°C 61% 7.0 mph SW11.3 kmh SW -- 29.88 in1011.9 mb 0.00 in0.0 mm 0.00 in0.0 mm 0.06 in1.5 mm
02:40 PM 35.5°F1.9°C 23.4°F-4.8°C 61% 12.0 mph SW19.3 kmh SW 18.0 mph29.0 kmh 29.89 in1012.2 mb 0.00 in0.0 mm 0.00 in0.0 mm 0.06 in1.5 mm
02:45 PM 35.4°F1.9°C 23.3°F-4.8°C 61% 5.0 mph SW8.0 kmh SW 18.0 mph29.0 kmh 29.89 in1012.2 mb 0.00 in0.0 mm 0.00 in0.0 mm 0.06 in1.5 mm
02:50 PM 35.8°F2.1°C 24.1°F-4.4°C 62% 13.0 mph SW20.9 kmh SW -- 29.89 in1012.2 mb 0.00 in0.0 mm 0.00 in0.0 mm 0.06 in1.5 mm
02:55 PM 36.1°F2.3°C 24.0°F-4.4°C 61% 7.0 mph SW11.3 kmh SW -- 29.89 in1012.2 mb 0.00 in0.0 mm 0.00 in0.0 mm 0.06 in1.5 mm
03:00 PM 36.3°F2.4°C 24.2°F-4.3°C 61% 8.0 mph WSW12.9 kmh WSW -- 29.90 in1012.5 mb 0.00 in0.0 mm 0.00 in0.0 mm 0.06 in1.5 mm
03:05 PM 36.2°F2.3°C 23.7°F-4.6°C 60% 6.0 mph SW9.7 kmh SW -- 29.90 in1012.5 mb 0.00 in0.0 mm 0.00 in0.0 mm 0.06 in1.5 mm
03:10 PM 36.4°F2.4°C 23.9°F-4.5°C 60% 9.0 mph SW14.5 kmh SW -- 29.90 in1012.5 mb 0.00 in0.0 mm 0.00 in0.0 mm 0.06 in1.5 mm
03:15 PM 36.5°F2.5°C 24.0°F-4.4°C 60% 9.0 mph WSW14.5 kmh WSW -- 29.90 in1012.5 mb 0.00 in0.0 mm 0.00 in0.0 mm 0.06 in1.5 mm
03:20 PM 36.8°F2.7°C 24.2°F-4.3°C 60% 7.0 mph SW11.3 kmh SW -- 29.90 in1012.5 mb 0.00 in0.0 mm 0.00 in0.0 mm 0.06 in1.5 mm
03:25 PM 36.9°F2.7°C 24.7°F-4.1°C 61% 8.0 mph SW12.9 kmh SW -- 29.90 in1012.5 mb 0.00 in0.0 mm 0.00 in0.0 mm 0.06 in1.5 mm
03:30 PM 36.8°F2.7°C 24.6°F-4.1°C 61% 6.0 mph SW9.7 kmh SW 16.0 mph25.7 kmh 29.90 in1012.5 mb 0.00 in0.0 mm 0.00 in0.0 mm 0.06 in1.5 mm
03:35 PM 37.0°F2.8°C 24.8°F-4.0°C 61% 7.0 mph SW11.3 kmh SW 16.0 mph25.7 kmh 29.91 in1012.9 mb 0.00 in0.0 mm 0.00 in0.0 mm 0.06 in1.5 mm
03:40 PM 37.1°F2.8°C 24.5°F-4.2°C 60% 5.0 mph SW8.0 kmh SW -- 29.91 in1012.9 mb 0.00 in0.0 mm 0.00 in0.0 mm 0.06 in1.5 mm
03:45 PM 37.3°F2.9°C 25.1°F-3.8°C 61% 10.0 mph SW16.1 kmh SW -- 29.90 in1012.5 mb 0.00 in0.0 mm 0.00 in0.0 mm 0.06 in1.5 mm
03:50 PM 37.5°F3.1°C 25.3°F-3.7°C 61% 7.0 mph W11.3 kmh W -- 29.91 in1012.9 mb 0.00 in0.0 mm 0.00 in0.0 mm 0.06 in1.5 mm
03:55 PM 37.7°F3.2°C 25.1°F-3.8°C 60% 4.0 mph SW6.4 kmh SW -- 29.91 in1012.9 mb 0.00 in0.0 mm 0.00 in0.0 mm 0.06 in1.5 mm
04:00 PM 37.6°F3.1°C 24.6°F-4.1°C 59% 15.0 mph SW24.1 kmh SW -- 29.91 in1012.9 mb 0.00 in0.0 mm 0.00 in0.0 mm 0.06 in1.5 mm
04:05 PM 37.6°F3.1°C 25.0°F-3.9°C 60% 11.0 mph WSW17.7 kmh WSW -- 29.91 in1012.9 mb 0.00 in0.0 mm 0.00 in0.0 mm 0.06 in1.5 mm
04:10 PM 37.9°F3.3°C 25.7°F-3.5°C 61% 6.0 mph SW9.7 kmh SW -- 29.91 in1012.9 mb 0.00 in0.0 mm 0.00 in0.0 mm 0.06 in1.5 mm
04:15 PM 38.0°F3.3°C 25.0°F-3.9°C 59% 21.0 mph W33.8 kmh W -- 29.92 in1013.2 mb 0.00 in0.0 mm 0.00 in0.0 mm 0.06 in1.5 mm
04:20 PM 38.0°F3.3°C 24.6°F-4.1°C 58% 9.0 mph SW14.5 kmh SW 21.0 mph33.8 kmh 29.92 in1013.2 mb 0.00 in0.0 mm 0.00 in0.0 mm 0.06 in1.5 mm
04:25 PM 38.3°F3.5°C 25.6°F-3.6°C 60% 8.0 mph WSW12.9 kmh WSW 21.0 mph33.8 kmh 29.93 in1013.5 mb 0.00 in0.0 mm 0.00 in0.0 mm 0.06 in1.5 mm
04:30 PM 38.4°F3.6°C 24.9°F-3.9°C 58% 10.0 mph SW16.1 kmh SW -- 29.93 in1013.5 mb 0.00 in0.0 mm 0.00 in0.0 mm 0.06 in1.5 mm
04:35 PM 38.3°F3.5°C 24.8°F-4.0°C 58% 11.0 mph WSW17.7 kmh WSW -- 29.93 in1013.5 mb 0.00 in0.0 mm 0.00 in0.0 mm 0.06 in1.5 mm
04:40 PM 38.4°F3.6°C 24.9°F-3.9°C 58% 9.0 mph W14.5 kmh W -- 29.93 in1013.5 mb 0.00 in0.0 mm 0.00 in0.0 mm 0.06 in1.5 mm
04:45 PM 38.3°F3.5°C 24.8°F-4.0°C 58% 7.0 mph SW11.3 kmh SW -- 29.94 in1013.9 mb 0.00 in0.0 mm 0.00 in0.0 mm 0.06 in1.5 mm
04:50 PM 38.4°F3.6°C 25.7°F-3.5°C 60% 8.0 mph SW12.9 kmh SW -- 29.94 in1013.9 mb 0.00 in0.0 mm 0.00 in0.0 mm 0.06 in1.5 mm
04:55 PM 38.4°F3.6°C 25.7°F-3.5°C 60% 12.0 mph WSW19.3 kmh WSW -- 29.94 in1013.9 mb 0.00 in0.0 mm 0.00 in0.0 mm 0.06 in1.5 mm
05:00 PM 38.2°F3.4°C 26.0°F-3.3°C 61% 8.0 mph SW12.9 kmh SW -- 29.95 in1014.2 mb 0.00 in0.0 mm 0.00 in0.0 mm 0.06 in1.5 mm
05:05 PM 38.0°F3.3°C 25.8°F-3.4°C 61% 9.0 mph SW14.5 kmh SW -- 29.95 in1014.2 mb 0.00 in0.0 mm 0.00 in0.0 mm 0.06 in1.5 mm
05:10 PM 38.0°F3.3°C 25.8°F-3.4°C 61% 8.0 mph SW12.9 kmh SW 14.0 mph22.5 kmh 29.95 in1014.2 mb 0.00 in0.0 mm 0.00 in0.0 mm 0.06 in1.5 mm
05:15 PM 38.2°F3.4°C 26.0°F-3.3°C 61% 6.0 mph SW9.7 kmh SW 14.0 mph22.5 kmh 29.96 in1014.6 mb 0.00 in0.0 mm 0.00 in0.0 mm 0.06 in1.5 mm
05:20 PM 38.2°F3.4°C 26.0°F-3.3°C 61% 7.0 mph SW11.3 kmh SW -- 29.96 in1014.6 mb 0.00 in0.0 mm 0.00 in0.0 mm 0.06 in1.5 mm
05:25 PM 38.1°F3.4°C 25.9°F-3.4°C 61% 8.0 mph SW12.9 kmh SW -- 29.96 in1014.6 mb 0.00 in0.0 mm 0.00 in0.0 mm 0.06 in1.5 mm
05:30 PM 38.0°F3.3°C 26.2°F-3.2°C 62% 8.0 mph SW12.9 kmh SW -- 29.96 in1014.6 mb 0.00 in0.0 mm 0.00 in0.0 mm 0.06 in1.5 mm
05:35 PM 37.9°F3.3°C 25.7°F-3.5°C 61% 6.0 mph SW9.7 kmh SW -- 29.97 in1014.9 mb 0.00 in0.0 mm 0.00 in0.0 mm 0.06 in1.5 mm
05:40 PM 37.9°F3.3°C 26.4°F-3.1°C 63% 4.0 mph SW6.4 kmh SW -- 29.97 in1014.9 mb 0.00 in0.0 mm 0.00 in0.0 mm 0.06 in1.5 mm
05:45 PM 37.8°F3.2°C 26.4°F-3.1°C 63% 11.0 mph SW17.7 kmh SW -- 29.98 in1015.2 mb 0.00 in0.0 mm 0.00 in0.0 mm 0.06 in1.5 mm
05:50 PM 37.7°F3.2°C 26.3°F-3.2°C 63% 10.0 mph WSW16.1 kmh WSW -- 29.98 in1015.2 mb 0.00 in0.0 mm 0.00 in0.0 mm 0.06 in1.5 mm
05:55 PM 37.4°F3.0°C 26.4°F-3.1°C 64% 6.0 mph W9.7 kmh W -- 29.98 in1015.2 mb 0.00 in0.0 mm 0.00 in0.0 mm 0.06 in1.5 mm
06:00 PM 37.3°F2.9°C 26.3°F-3.2°C 64% 9.0 mph SW14.5 kmh SW 14.0 mph22.5 kmh 29.98 in1015.2 mb 0.00 in0.0 mm 0.00 in0.0 mm 0.06 in1.5 mm
06:05 PM 37.1°F2.8°C 26.4°F-3.1°C 65% 7.0 mph SSW11.3 kmh SSW 14.0 mph22.5 kmh 29.99 in1015.6 mb 0.00 in0.0 mm 0.00 in0.0 mm 0.06 in1.5 mm
06:10 PM 37.0°F2.8°C 26.7°F-2.9°C 66% 5.0 mph SSW8.0 kmh SSW -- 29.99 in1015.6 mb 0.00 in0.0 mm 0.00 in0.0 mm 0.06 in1.5 mm
06:15 PM 36.9°F2.7°C 26.2°F-3.2°C 65% 9.0 mph WSW14.5 kmh WSW -- 30.00 in1015.9 mb 0.00 in0.0 mm 0.00 in0.0 mm 0.06 in1.5 mm
06:20 PM 36.8°F2.7°C 26.5°F-3.1°C 66% 14.0 mph WSW22.5 kmh WSW -- 30.00 in1015.9 mb 0.00 in0.0 mm 0.00 in0.0 mm 0.06 in1.5 mm
06:25 PM 36.5°F2.5°C 26.2°F-3.2°C 66% 7.0 mph SSW11.3 kmh SSW -- 30.00 in1015.9 mb 0.00 in0.0 mm 0.00 in0.0 mm 0.06 in1.5 mm
06:30 PM 36.2°F2.3°C 26.3°F-3.2°C 67% 3.0 mph SW4.8 kmh SW -- 30.00 in1015.9 mb 0.00 in0.0 mm 0.00 in0.0 mm 0.06 in1.5 mm
06:35 PM 35.9°F2.2°C 26.4°F-3.1°C 68% 7.0 mph WSW11.3 kmh WSW -- 30.01 in1016.3 mb 0.00 in0.0 mm 0.00 in0.0 mm 0.06 in1.5 mm
06:40 PM 35.7°F2.1°C 26.5°F-3.1°C 69% 7.0 mph SW11.3 kmh SW -- 30.01 in1016.3 mb 0.00 in0.0 mm 0.00 in0.0 mm 0.06 in1.5 mm
06:45 PM 35.6°F2.0°C 26.4°F-3.1°C 69% 6.0 mph SW9.7 kmh SW -- 30.01 in1016.3 mb 0.00 in0.0 mm 0.00 in0.0 mm 0.06 in1.5 mm
06:50 PM 35.5°F1.9°C 26.7°F-2.9°C 70% 7.0 mph SW11.3 kmh SW 15.0 mph24.1 kmh 30.01 in1016.3 mb 0.00 in0.0 mm 0.00 in0.0 mm 0.06 in1.5 mm
06:55 PM 35.4°F1.9°C 26.6°F-3.0°C 70% 7.0 mph SSW11.3 kmh SSW 15.0 mph24.1 kmh 30.02 in1016.6 mb 0.00 in0.0 mm 0.00 in0.0 mm 0.06 in1.5 mm
07:00 PM 35.2°F1.8°C 26.4°F-3.1°C 70% 11.0 mph WSW17.7 kmh WSW -- 30.02 in1016.6 mb 0.00 in0.0 mm 0.00 in0.0 mm 0.06 in1.5 mm
07:05 PM 35.2°F1.8°C 26.4°F-3.1°C 70% 9.0 mph SW14.5 kmh SW -- 30.02 in1016.6 mb 0.00 in0.0 mm 0.00 in0.0 mm 0.06 in1.5 mm
07:10 PM 35.2°F1.8°C 26.4°F-3.1°C 70% 8.0 mph WSW12.9 kmh WSW -- 30.02 in1016.6 mb 0.00 in0.0 mm 0.00 in0.0 mm 0.06 in1.5 mm
07:15 PM 35.1°F1.7°C 26.7°F-2.9°C 71% 6.0 mph SSW9.7 kmh SSW -- 30.03 in1016.9 mb 0.00 in0.0 mm 0.00 in0.0 mm 0.06 in1.5 mm
07:20 PM 34.9°F1.6°C 26.5°F-3.1°C 71% 2.0 mph SW3.2 kmh SW -- 30.03 in1016.9 mb 0.00 in0.0 mm 0.00 in0.0 mm 0.06 in1.5 mm
07:25 PM 34.8°F1.6°C 26.4°F-3.1°C 71% 9.0 mph WSW14.5 kmh WSW -- 30.04 in1017.3 mb 0.00 in0.0 mm 0.00 in0.0 mm 0.06 in1.5 mm
07:30 PM 34.7°F1.5°C 26.3°F-3.2°C 71% 5.0 mph SW8.0 kmh SW -- 30.04 in1017.3 mb 0.00 in0.0 mm 0.00 in0.0 mm 0.06 in1.5 mm
07:35 PM 34.7°F1.5°C 26.3°F-3.2°C 71% 6.0 mph SW9.7 kmh SW -- 30.05 in1017.6 mb 0.00 in0.0 mm 0.00 in0.0 mm 0.06 in1.5 mm
07:40 PM 34.5°F1.4°C 26.4°F-3.1°C 72% 4.0 mph SW6.4 kmh SW 14.0 mph22.5 kmh 30.05 in1017.6 mb 0.00 in0.0 mm 0.00 in0.0 mm 0.06 in1.5 mm
07:45 PM 34.4°F1.3°C 26.3°F-3.2°C 72% 6.0 mph SW9.7 kmh SW 14.0 mph22.5 kmh 30.05 in1017.6 mb 0.00 in0.0 mm 0.00 in0.0 mm 0.06 in1.5 mm
07:50 PM 34.3°F1.3°C 26.2°F-3.2°C 72% 8.0 mph WSW12.9 kmh WSW -- 30.05 in1017.6 mb 0.00 in0.0 mm 0.00 in0.0 mm 0.06 in1.5 mm
07:55 PM 34.2°F1.2°C 26.1°F-3.3°C 72% 5.0 mph WSW8.0 kmh WSW -- 30.05 in1017.6 mb 0.00 in0.0 mm 0.00 in0.0 mm 0.06 in1.5 mm
08:00 PM 34.2°F1.2°C 26.1°F-3.3°C 72% 5.0 mph SW8.0 kmh SW -- 30.05 in1017.6 mb 0.00 in0.0 mm 0.00 in0.0 mm 0.06 in1.5 mm
08:05 PM 34.1°F1.2°C 26.4°F-3.1°C 73% 8.0 mph SW12.9 kmh SW -- 30.05 in1017.6 mb 0.00 in0.0 mm 0.00 in0.0 mm 0.06 in1.5 mm
08:10 PM 34.0°F1.1°C 26.3°F-3.2°C 73% 4.0 mph SW6.4 kmh SW -- 30.06 in1017.9 mb 0.00 in0.0 mm 0.00 in0.0 mm 0.06 in1.5 mm
08:15 PM 33.9°F1.1°C 26.2°F-3.2°C 73% 4.0 mph SW6.4 kmh SW -- 30.06 in1017.9 mb 0.00 in0.0 mm 0.00 in0.0 mm 0.06 in1.5 mm
08:20 PM 33.8°F1.0°C 26.4°F-3.1°C 74% 6.0 mph SW9.7 kmh SW -- 30.06 in1017.9 mb 0.00 in0.0 mm 0.00 in0.0 mm 0.06 in1.5 mm
08:25 PM 33.7°F0.9°C 26.3°F-3.2°C 74% 4.0 mph SW6.4 kmh SW -- 30.06 in1017.9 mb 0.00 in0.0 mm 0.00 in0.0 mm 0.06 in1.5 mm
08:30 PM 33.7°F0.9°C 26.3°F-3.2°C 74% 5.0 mph SW8.0 kmh SW 13.0 mph20.9 kmh 30.06 in1017.9 mb 0.00 in0.0 mm 0.00 in0.0 mm 0.06 in1.5 mm
08:35 PM 33.6°F0.9°C 26.2°F-3.2°C 74% 8.0 mph SW12.9 kmh SW 13.0 mph20.9 kmh 30.06 in1017.9 mb 0.00 in0.0 mm 0.00 in0.0 mm 0.06 in1.5 mm
08:40 PM 33.5°F0.8°C 26.1°F-3.3°C 74% 4.0 mph WSW6.4 kmh WSW -- 30.07 in1018.3 mb 0.00 in0.0 mm 0.00 in0.0 mm 0.06 in1.5 mm
08:45 PM 33.4°F0.8°C 26.3°F-3.2°C 75% 5.0 mph SW8.0 kmh SW -- 30.07 in1018.3 mb 0.00 in0.0 mm 0.00 in0.0 mm 0.06 in1.5 mm
08:50 PM 33.3°F0.7°C 26.2°F-3.2°C 75% 4.0 mph SW6.4 kmh SW -- 30.07 in1018.3 mb 0.00 in0.0 mm 0.00 in0.0 mm 0.06 in1.5 mm
08:55 PM 33.3°F0.7°C 26.2°F-3.2°C 75% 5.0 mph SW8.0 kmh SW -- 30.07 in1018.3 mb 0.00 in0.0 mm 0.00 in0.0 mm 0.06 in1.5 mm
09:00 PM 33.2°F0.7°C 26.2°F-3.2°C 75% 9.0 mph SW14.5 kmh SW -- 30.07 in1018.3 mb 0.00 in0.0 mm 0.00 in0.0 mm 0.06 in1.5 mm
09:05 PM 33.1°F0.6°C 25.7°F-3.5°C 74% 4.0 mph SW6.4 kmh SW -- 30.08 in1018.6 mb 0.00 in0.0 mm 0.00 in0.0 mm 0.06 in1.5 mm
09:10 PM 33.0°F0.6°C 26.0°F-3.3°C 75% 4.0 mph WSW6.4 kmh WSW -- 30.08 in1018.6 mb 0.00 in0.0 mm 0.00 in0.0 mm 0.06 in1.5 mm
09:15 PM 32.9°F0.5°C 25.5°F-3.6°C 74% 5.0 mph SW8.0 kmh SW -- 30.08 in1018.6 mb 0.00 in0.0 mm 0.00 in0.0 mm 0.06 in1.5 mm
09:20 PM 32.9°F0.5°C 25.9°F-3.4°C 75% 5.0 mph SW8.0 kmh SW 13.0 mph20.9 kmh 30.08 in1018.6 mb 0.00 in0.0 mm 0.00 in0.0 mm 0.06 in1.5 mm
09:25 PM 32.8°F0.4°C 25.8°F-3.4°C 75% 3.0 mph WSW4.8 kmh WSW 13.0 mph20.9 kmh 30.08 in1018.6 mb 0.00 in0.0 mm 0.00 in0.0 mm 0.06 in1.5 mm
09:30 PM 32.7°F0.4°C 25.7°F-3.5°C 75% 2.0 mph WSW3.2 kmh WSW -- 30.08 in1018.6 mb 0.00 in0.0 mm 0.00 in0.0 mm 0.06 in1.5 mm
09:35 PM 32.5°F0.3°C 25.8°F-3.4°C 76% 4.0 mph WSW6.4 kmh WSW -- 30.08 in1018.6 mb 0.00 in0.0 mm 0.00 in0.0 mm 0.06 in1.5 mm
09:40 PM 32.5°F0.3°C 25.8°F-3.4°C 76% 8.0 mph W12.9 kmh W -- 30.09 in1019.0 mb 0.00 in0.0 mm 0.00 in0.0 mm 0.06 in1.5 mm
09:45 PM 32.4°F0.2°C 25.7°F-3.5°C 76% 4.0 mph WSW6.4 kmh WSW -- 30.09 in1019.0 mb 0.00 in0.0 mm 0.00 in0.0 mm 0.06 in1.5 mm
09:50 PM 32.3°F0.2°C 25.6°F-3.6°C 76% 4.0 mph SW6.4 kmh SW -- 30.09 in1019.0 mb 0.00 in0.0 mm 0.00 in0.0 mm 0.06 in1.5 mm
09:55 PM 32.1°F0.1°C 25.7°F-3.5°C 77% 5.0 mph W8.0 kmh W -- 30.09 in1019.0 mb 0.00 in0.0 mm 0.00 in0.0 mm 0.06 in1.5 mm
10:00 PM 32.0°F0.0°C 25.6°F-3.6°C 77% 4.0 mph WSW6.4 kmh WSW -- 30.09 in1019.0 mb 0.00 in0.0 mm 0.00 in0.0 mm 0.06 in1.5 mm
10:05 PM 31.9°F-0.1°C 25.5°F-3.6°C 77% 3.0 mph W4.8 kmh W -- 30.09 in1019.0 mb 0.00 in0.0 mm 0.00 in0.0 mm 0.06 in1.5 mm
10:10 PM 31.9°F-0.1°C 25.5°F-3.6°C 77% 5.0 mph SW8.0 kmh SW 12.0 mph19.3 kmh 30.09 in1019.0 mb 0.00 in0.0 mm 0.00 in0.0 mm 0.06 in1.5 mm
10:15 PM 31.7°F-0.2°C 25.3°F-3.7°C 77% 3.0 mph WSW4.8 kmh WSW 12.0 mph19.3 kmh 30.10 in1019.3 mb 0.00 in0.0 mm 0.00 in0.0 mm 0.06 in1.5 mm
10:20 PM 31.6°F-0.2°C 25.2°F-3.8°C 77% 2.0 mph SW3.2 kmh SW -- 30.10 in1019.3 mb 0.00 in0.0 mm 0.00 in0.0 mm 0.06 in1.5 mm
10:25 PM 31.5°F-0.3°C 25.4°F-3.7°C 78% 5.0 mph SW8.0 kmh SW -- 30.10 in1019.3 mb 0.00 in0.0 mm 0.00 in0.0 mm 0.06 in1.5 mm
10:30 PM 31.4°F-0.3°C 25.3°F-3.7°C 78% 5.0 mph SW8.0 kmh SW -- 30.10 in1019.3 mb 0.00 in0.0 mm 0.00 in0.0 mm 0.06 in1.5 mm
10:35 PM 31.3°F-0.4°C 25.3°F-3.7°C 78% 6.0 mph WSW9.7 kmh WSW -- 30.11 in1019.6 mb 0.00 in0.0 mm 0.00 in0.0 mm 0.06 in1.5 mm
10:40 PM 31.2°F-0.4°C 25.5°F-3.6°C 79% 3.0 mph WSW4.8 kmh WSW -- 30.11 in1019.6 mb 0.00 in0.0 mm 0.00 in0.0 mm 0.06 in1.5 mm
10:45 PM 31.2°F-0.4°C 25.5°F-3.6°C 79% 7.0 mph SSW11.3 kmh SSW -- 30.11 in1019.6 mb 0.00 in0.0 mm 0.00 in0.0 mm 0.06 in1.5 mm
10:50 PM 31.1°F-0.5°C 25.4°F-3.7°C 79% 2.0 mph SW3.2 kmh SW -- 30.11 in1019.6 mb 0.00 in0.0 mm 0.00 in0.0 mm 0.06 in1.5 mm
10:55 PM 31.0°F-0.6°C 25.3°F-3.7°C 79% 3.0 mph WSW4.8 kmh WSW -- 30.11 in1019.6 mb 0.00 in0.0 mm 0.00 in0.0 mm 0.06 in1.5 mm
11:00 PM 31.0°F-0.6°C 25.3°F-3.7°C 79% 3.0 mph WSW4.8 kmh WSW 8.0 mph12.9 kmh 30.12 in1020.0 mb 0.00 in0.0 mm 0.00 in0.0 mm 0.06 in1.5 mm
11:05 PM 30.8°F-0.7°C 25.1°F-3.8°C 79% 6.0 mph SW9.7 kmh SW 8.0 mph12.9 kmh 30.12 in1020.0 mb 0.00 in0.0 mm 0.00 in0.0 mm 0.06 in1.5 mm
11:10 PM 30.7°F-0.7°C 25.3°F-3.7°C 80% 4.0 mph WSW6.4 kmh WSW -- 30.12 in1020.0 mb 0.00 in0.0 mm 0.00 in0.0 mm 0.06 in1.5 mm
11:15 PM 30.7°F-0.7°C 25.3°F-3.7°C 80% 4.0 mph WSW6.4 kmh WSW -- 30.12 in1020.0 mb 0.00 in0.0 mm 0.00 in0.0 mm 0.06 in1.5 mm
11:20 PM 30.7°F-0.7°C 25.3°F-3.7°C 80% 3.0 mph WSW4.8 kmh WSW -- 30.12 in1020.0 mb 0.00 in0.0 mm 0.00 in0.0 mm 0.06 in1.5 mm
11:25 PM 30.7°F-0.7°C 25.3°F-3.7°C 80% 7.0 mph WSW11.3 kmh WSW -- 30.12 in1020.0 mb 0.00 in0.0 mm 0.00 in0.0 mm 0.06 in1.5 mm
11:30 PM 30.6°F-0.8°C 25.2°F-3.8°C 80% 3.0 mph WSW4.8 kmh WSW -- 30.12 in1020.0 mb 0.00 in0.0 mm 0.00 in0.0 mm 0.06 in1.5 mm
11:35 PM 30.6°F-0.8°C 25.2°F-3.8°C 80% 4.0 mph WSW6.4 kmh WSW -- 30.13 in1020.3 mb 0.00 in0.0 mm 0.00 in0.0 mm 0.06 in1.5 mm
11:40 PM 30.5°F-0.8°C 25.1°F-3.8°C 80% 3.0 mph WSW4.8 kmh WSW -- 30.13 in1020.3 mb 0.00 in0.0 mm 0.00 in0.0 mm 0.06 in1.5 mm
11:45 PM 30.4°F-0.9°C 25.0°F-3.9°C 80% 3.0 mph SW4.8 kmh SW -- 30.13 in1020.3 mb 0.00 in0.0 mm 0.00 in0.0 mm 0.06 in1.5 mm
11:50 PM 30.3°F-0.9°C 25.2°F-3.8°C 81% 3.0 mph WSW4.8 kmh WSW 6.0 mph9.7 kmh 30.13 in1020.3 mb 0.00 in0.0 mm 0.00 in0.0 mm 0.06 in1.5 mm
11:55 PM 30.2°F-1.0°C 25.1°F-3.8°C 81% 3.0 mph WSW4.8 kmh WSW 6.0 mph9.7 kmh 30.13 in1020.3 mb 0.00 in0.0 mm 0.00 in0.0 mm 0.06 in1.5 mm